createdAt,value
2023-02-19T00:00:41.832Z,40.39
2023-02-19T00:01:41.980Z,40.35
2023-02-19T00:02:42.134Z,40.08
2023-02-19T00:03:42.270Z,40.31
2023-02-19T00:04:42.437Z,40.12
2023-02-19T00:05:42.447Z,40.39
2023-02-19T00:06:42.554Z,40.35
2023-02-19T00:07:42.648Z,40.43
2023-02-19T00:08:42.798Z,40.23
2023-02-19T00:09:43.158Z,40.23
2023-02-19T00:10:43.120Z,40.54
2023-02-19T00:11:43.179Z,40.35
2023-02-19T00:12:43.260Z,40.66
2023-02-19T00:13:43.357Z,40.62
2023-02-19T00:14:43.539Z,40.74
2023-02-19T00:15:43.804Z,40.62
2023-02-19T00:16:43.720Z,40.74
2023-02-19T00:17:43.816Z,40.78
2023-02-19T00:18:43.956Z,40.90
2023-02-19T00:19:44.162Z,41.18
2023-02-19T00:20:44.221Z,41.22
2023-02-19T00:21:44.406Z,41.14
2023-02-19T00:22:44.475Z,41.02
2023-02-19T00:23:44.565Z,41.10
2023-02-19T00:24:44.670Z,41.10
2023-02-19T00:25:44.762Z,41.47
2023-02-19T00:26:44.957Z,41.35
2023-02-19T00:27:45.009Z,41.22
2023-02-19T00:28:45.140Z,41.18
2023-02-19T00:29:45.835Z,41.10
2023-02-19T00:30:45.426Z,41.22
2023-02-19T00:31:45.707Z,41.14
2023-02-19T00:32:45.682Z,41.18
2023-02-19T00:33:45.795Z,41.06
2023-02-19T00:34:45.896Z,40.98
2023-02-19T00:35:46.028Z,41.43
2023-02-19T00:36:46.304Z,41.18
2023-02-19T00:37:46.304Z,41.22
2023-02-19T00:38:46.403Z,41.22
2023-02-19T00:39:46.523Z,41.43
2023-02-19T00:40:46.623Z,40.94
2023-02-19T00:41:46.839Z,41.10
2023-02-19T00:42:46.879Z,41.18
2023-02-19T00:43:46.971Z,40.90
2023-02-19T00:44:47.117Z,40.98
2023-02-19T00:45:47.212Z,41.22
2023-02-19T00:46:47.540Z,41.22
2023-02-19T00:47:47.472Z,41.02
2023-02-19T00:48:47.570Z,41.22
2023-02-19T00:49:47.727Z,41.14
2023-02-19T00:50:47.802Z,41.02
2023-02-19T00:51:48.102Z,40.98
2023-02-19T00:52:48.070Z,40.86
2023-02-19T00:53:48.216Z,41.02
2023-02-19T00:54:48.320Z,41.02
2023-02-19T00:55:48.423Z,41.18
2023-02-19T00:56:48.714Z,40.94
2023-02-19T00:57:48.698Z,41.02
2023-02-19T00:58:48.851Z,40.98
2023-02-19T00:59:48.943Z,40.98
2023-02-19T01:00:49.100Z,40.98
2023-02-19T01:01:49.287Z,40.90
2023-02-19T01:02:49.308Z,41.06
2023-02-19T01:03:49.447Z,40.98
2023-02-19T01:04:49.716Z,40.90
2023-02-19T01:05:49.726Z,41.02
2023-02-19T01:06:49.888Z,40.90
2023-02-19T01:07:49.975Z,40.86
2023-02-19T01:08:50.119Z,40.90
2023-02-19T01:09:50.526Z,40.94
2023-02-19T01:10:50.442Z,40.82
2023-02-19T01:11:50.532Z,40.98
2023-02-19T01:12:50.685Z,41.06
2023-02-19T01:13:50.949Z,40.70
2023-02-19T01:14:51.175Z,40.98
2023-02-19T01:15:51.178Z,40.98
2023-02-19T01:16:51.213Z,40.94
2023-02-19T01:17:51.310Z,40.86
2023-02-19T01:18:51.460Z,40.82
2023-02-19T01:19:51.732Z,40.70
2023-02-19T01:20:51.699Z,40.70
2023-02-19T01:21:51.838Z,40.70
2023-02-19T01:22:51.990Z,40.70
2023-02-19T01:23:52.200Z,40.82
2023-02-19T01:24:52.190Z,40.94
2023-02-19T01:25:52.328Z,40.58
2023-02-19T01:26:52.466Z,40.58
2023-02-19T01:27:52.618Z,40.62
2023-02-19T01:28:52.827Z,40.50
2023-02-19T01:29:52.985Z,40.58
2023-02-19T01:30:53.051Z,40.86
2023-02-19T01:31:53.338Z,40.82
2023-02-19T01:32:53.255Z,40.70
2023-02-19T01:33:53.456Z,40.50
2023-02-19T01:34:53.505Z,40.54
2023-02-19T01:35:53.654Z,40.50
2023-02-19T01:36:53.927Z,40.39
2023-02-19T01:37:53.874Z,40.39
2023-02-19T01:38:54.074Z,40.54
2023-02-19T01:39:54.106Z,40.31
2023-02-19T01:40:54.246Z,40.27
2023-02-19T01:41:54.407Z,40.15
2023-02-19T01:42:54.494Z,40.31
2023-02-19T01:43:54.694Z,40.43
2023-02-19T01:44:54.734Z,40.27
2023-02-19T01:45:54.874Z,40.12
2023-02-19T01:46:55.160Z,40.19
2023-02-19T01:47:55.135Z,40.12
2023-02-19T01:48:55.274Z,40.12
2023-02-19T01:49:55.492Z,40.15
2023-02-19T01:50:55.483Z,40.15
2023-02-19T01:51:55.704Z,40.27
2023-02-19T01:52:55.686Z,40.31
2023-02-19T01:53:55.823Z,40.15
2023-02-19T01:54:55.974Z,40.19
2023-02-19T01:55:56.082Z,40.19
2023-02-19T01:56:56.377Z,40.00
2023-02-19T01:57:56.312Z,40.08
2023-02-19T01:58:56.412Z,40.08
2023-02-19T01:59:56.510Z,40.23
2023-02-19T02:00:56.716Z,40.00
2023-02-19T02:01:56.901Z,40.12
2023-02-19T02:02:56.956Z,40.35
2023-02-19T02:03:57.100Z,40.23
2023-02-19T02:04:57.275Z,40.35
2023-02-19T02:05:57.360Z,40.35
2023-02-19T02:06:57.602Z,40.23
2023-02-19T02:07:57.580Z,40.19
2023-02-19T02:08:57.729Z,40.23
2023-02-19T02:09:57.880Z,40.43
2023-02-19T02:10:57.994Z,40.43
2023-02-19T02:11:58.196Z,40.47
2023-02-19T02:12:58.226Z,40.50
2023-02-19T02:13:58.397Z,40.35
2023-02-19T02:14:58.549Z,40.47
2023-02-19T02:15:58.600Z,40.27
2023-02-19T02:16:58.736Z,40.15
2023-02-19T02:17:58.972Z,40.27
2023-02-19T02:18:59.018Z,40.31
2023-02-19T02:19:59.174Z,40.04
2023-02-19T02:20:59.252Z,40.15
2023-02-19T02:21:59.421Z,40.12
2023-02-19T02:22:59.531Z,39.88
2023-02-19T02:23:59.627Z,40.04
2023-02-19T02:24:59.849Z,40.00
2023-02-19T02:25:59.840Z,40.08
2023-02-19T02:26:59.974Z,39.81
2023-02-19T02:28:00.093Z,39.77
2023-02-19T02:29:00.297Z,39.77
2023-02-19T02:30:00.427Z,39.70
2023-02-19T02:31:00.476Z,39.77
2023-02-19T02:32:00.621Z,39.81
2023-02-19T02:33:00.695Z,39.85
2023-02-19T02:34:00.880Z,39.77
2023-02-19T02:35:00.905Z,39.85
2023-02-19T02:36:01.224Z,40.12
2023-02-19T02:37:01.150Z,39.81
2023-02-19T02:38:01.256Z,39.85
2023-02-19T02:39:01.350Z,40.00
2023-02-19T02:40:01.487Z,40.04
2023-02-19T02:41:02.172Z,40.15
2023-02-19T02:42:01.735Z,40.23
2023-02-19T02:43:01.829Z,40.08
2023-02-19T02:44:02.053Z,40.39
2023-02-19T02:45:02.141Z,40.47
2023-02-19T02:46:02.234Z,40.31
2023-02-19T02:47:02.305Z,40.15
2023-02-19T02:48:02.393Z,40.23
2023-02-19T02:49:02.683Z,40.19
2023-02-19T02:50:04.327Z,40.27
2023-02-19T02:51:02.753Z,40.31
2023-02-19T02:52:02.872Z,40.19
2023-02-19T02:53:02.992Z,40.58
2023-02-19T02:54:03.215Z,40.47
2023-02-19T02:55:03.200Z,40.39
2023-02-19T02:56:03.330Z,40.43
2023-02-19T02:57:03.625Z,40.50
2023-02-19T02:58:03.610Z,40.78
2023-02-19T02:59:03.758Z,40.70
2023-02-19T03:00:03.850Z,40.66
2023-02-19T03:01:04.026Z,40.62
2023-02-19T03:02:04.225Z,40.94
2023-02-19T03:03:04.247Z,40.66
2023-02-19T03:04:04.379Z,40.86
2023-02-19T03:05:04.595Z,40.82
2023-02-19T03:06:04.640Z,40.90
2023-02-19T03:07:04.759Z,41.06
2023-02-19T03:08:04.844Z,41.22
2023-02-19T03:09:04.990Z,41.02
2023-02-19T03:10:05.380Z,41.10
2023-02-19T03:11:05.197Z,41.06
2023-02-19T03:12:05.290Z,41.39
2023-02-19T03:13:05.437Z,41.43
2023-02-19T03:14:05.546Z,41.31
2023-02-19T03:15:05.832Z,41.26
2023-02-19T03:16:05.781Z,41.59
2023-02-19T03:17:05.897Z,41.43
2023-02-19T03:18:06.085Z,41.43
2023-02-19T03:19:06.113Z,41.43
2023-02-19T03:20:06.329Z,41.39
2023-02-19T03:21:06.353Z,41.47
2023-02-19T03:22:06.465Z,41.39
2023-02-19T03:23:06.804Z,41.31
2023-02-19T03:24:06.701Z,41.68
2023-02-19T03:25:06.851Z,41.59
2023-02-19T03:26:06.971Z,41.76
2023-02-19T03:27:07.074Z,41.84
2023-02-19T03:28:07.378Z,41.55
2023-02-19T03:29:07.252Z,41.68
2023-02-19T03:30:07.459Z,41.68
2023-02-19T03:31:07.699Z,42.05
2023-02-19T03:32:07.641Z,41.97
2023-02-19T03:33:07.797Z,42.44
2023-02-19T03:34:07.818Z,42.35
2023-02-19T03:35:07.972Z,42.66
2023-02-19T03:36:08.077Z,42.83
2023-02-19T03:37:08.158Z,43.01
2023-02-19T03:38:08.425Z,43.01
2023-02-19T03:39:08.413Z,43.05
2023-02-19T03:40:08.510Z,43.37
2023-02-19T03:41:08.851Z,43.68
2023-02-19T03:42:08.771Z,44.05
2023-02-19T03:43:08.937Z,44.38
2023-02-19T03:44:08.970Z,44.19
2023-02-19T03:45:09.106Z,44.43
2023-02-19T03:46:09.447Z,44.38
2023-02-19T03:47:09.365Z,44.66
2023-02-19T03:48:09.594Z,44.71
2023-02-19T03:49:09.589Z,45.10
2023-02-19T03:50:09.703Z,45.10
2023-02-19T03:51:10.264Z,45.15
2023-02-19T03:52:09.919Z,45.19
2023-02-19T03:53:10.022Z,45.39
2023-02-19T03:54:10.115Z,45.49
2023-02-19T03:55:10.265Z,45.64
2023-02-19T03:56:10.538Z,45.94
2023-02-19T03:57:10.475Z,46.09
2023-02-19T03:58:10.576Z,46.56
2023-02-19T03:59:10.683Z,46.25
2023-02-19T04:00:10.829Z,46.30
2023-02-19T04:01:11.550Z,46.82
2023-02-19T04:02:11.114Z,46.87
2023-02-19T04:03:11.195Z,47.00
2023-02-19T04:04:11.358Z,47.10
2023-02-19T04:05:14.034Z,47.16
2023-02-19T04:06:11.656Z,47.29
2023-02-19T04:07:11.696Z,47.78
2023-02-19T04:08:11.840Z,48.00
2023-02-19T04:09:11.980Z,48.22
2023-02-19T04:10:12.214Z,48.42
2023-02-19T04:11:12.562Z,48.90
2023-02-19T04:12:12.354Z,49.24
2023-02-19T04:13:12.457Z,49.63
2023-02-19T04:14:12.560Z,50.07
2023-02-19T04:15:12.652Z,50.53
2023-02-19T04:16:13.051Z,50.71
2023-02-19T04:17:12.915Z,51.15
2023-02-19T04:18:13.021Z,51.69
2023-02-19T04:19:13.171Z,51.75
2023-02-19T04:20:13.282Z,52.01
2023-02-19T04:21:13.453Z,52.17
2023-02-19T04:22:13.474Z,52.66
2023-02-19T04:23:13.633Z,52.80
2023-02-19T04:24:13.770Z,52.93
2023-02-19T04:25:13.869Z,52.43
2023-02-19T04:26:14.179Z,52.33
2023-02-19T04:27:14.058Z,52.30
2023-02-19T04:28:14.231Z,52.04
2023-02-19T04:29:14.322Z,52.04
2023-02-19T04:30:14.534Z,52.14
2023-02-19T04:31:15.021Z,52.07
2023-02-19T04:32:14.668Z,51.85
2023-02-19T04:33:14.808Z,52.17
2023-02-19T04:34:14.945Z,52.14
2023-02-19T04:35:15.183Z,52.10
2023-02-19T04:36:15.146Z,52.10
2023-02-19T04:37:15.288Z,51.94
2023-02-19T04:38:15.423Z,51.72
2023-02-19T04:39:15.585Z,51.59
2023-02-19T04:40:15.813Z,51.05
2023-02-19T04:41:15.853Z,51.05
2023-02-19T04:42:15.992Z,50.99
2023-02-19T04:43:16.111Z,50.93
2023-02-19T04:44:16.258Z,51.02
2023-02-19T04:45:16.448Z,50.77
2023-02-19T04:46:16.509Z,50.87
2023-02-19T04:47:16.596Z,50.44
2023-02-19T04:48:16.729Z,50.44
2023-02-19T04:49:16.880Z,50.47
2023-02-19T04:50:17.191Z,50.31
2023-02-19T04:51:17.130Z,50.53
2023-02-19T04:52:17.254Z,50.59
2023-02-19T04:53:17.329Z,50.87
2023-02-19T04:54:17.475Z,51.08
2023-02-19T04:55:17.657Z,51.12
2023-02-19T04:56:17.770Z,51.12
2023-02-19T04:57:18.101Z,51.30
2023-02-19T04:58:18.006Z,51.34
2023-02-19T04:59:18.106Z,51.27
2023-02-19T05:00:18.247Z,51.49
2023-02-19T05:01:18.517Z,52.17
2023-02-19T05:02:18.521Z,52.04
2023-02-19T05:03:18.657Z,52.37
2023-02-19T05:04:18.928Z,53.10
2023-02-19T05:05:18.895Z,53.37
2023-02-19T05:06:19.007Z,54.38
2023-02-19T05:07:19.094Z,54.67
2023-02-19T05:08:19.259Z,55.24
2023-02-19T05:09:19.463Z,55.95
2023-02-19T05:10:19.564Z,56.86
2023-02-19T05:11:19.584Z,57.85
2023-02-19T05:12:19.798Z,58.87
2023-02-19T05:13:19.896Z,59.54
2023-02-19T05:14:20.036Z,60.06
2023-02-19T05:15:20.155Z,60.98
2023-02-19T05:16:20.317Z,61.97
2023-02-19T05:17:20.520Z,62.81
2023-02-19T05:18:20.512Z,62.44
2023-02-19T05:19:20.612Z,61.65
2023-02-19T05:20:20.703Z,60.45
2023-02-19T05:21:20.831Z,58.99
2023-02-19T05:22:21.064Z,57.53
2023-02-19T05:23:21.085Z,56.25
2023-02-19T05:24:21.334Z,55.21
2023-02-19T05:25:21.370Z,54.13
2023-02-19T05:26:21.522Z,53.27
2023-02-19T05:27:21.616Z,52.40
2023-02-19T05:28:21.759Z,51.65
2023-02-19T05:29:21.978Z,51.15
2023-02-19T05:30:22.053Z,50.56
2023-02-19T05:31:22.158Z,50.13
2023-02-19T05:32:22.247Z,49.74
2023-02-19T05:33:22.348Z,49.30
2023-02-19T05:34:22.517Z,48.90
2023-02-19T05:35:22.562Z,48.44
2023-02-19T05:36:22.642Z,48.36
2023-02-19T05:37:22.796Z,47.94
2023-02-19T05:38:22.938Z,47.59
2023-02-19T05:39:23.183Z,47.67
2023-02-19T05:40:23.219Z,47.45
2023-02-19T05:41:23.368Z,47.26
2023-02-19T05:42:23.473Z,47.42
2023-02-19T05:43:23.578Z,47.10
2023-02-19T05:44:23.745Z,46.97
2023-02-19T05:45:23.786Z,46.87
2023-02-19T05:46:23.952Z,46.61
2023-02-19T05:47:23.974Z,46.61
2023-02-19T05:48:24.165Z,46.66
2023-02-19T05:49:24.354Z,46.45
2023-02-19T05:50:24.443Z,46.50
2023-02-19T05:51:24.533Z,46.66
2023-02-19T05:52:24.647Z,46.56
2023-02-19T05:53:24.728Z,46.76
2023-02-19T05:54:24.917Z,46.82
2023-02-19T05:55:24.949Z,46.94
2023-02-19T05:56:25.123Z,47.24
2023-02-19T05:57:25.217Z,47.42
2023-02-19T05:58:25.323Z,47.67
2023-02-19T05:59:25.461Z,47.89
2023-02-19T06:00:25.575Z,48.22
2023-02-19T06:01:25.717Z,48.81
2023-02-19T06:02:25.807Z,49.22
2023-02-19T06:03:25.983Z,49.48
2023-02-19T06:04:26.121Z,49.98
2023-02-19T06:05:26.148Z,50.22
2023-02-19T06:06:26.338Z,50.34
2023-02-19T06:07:26.409Z,50.28
2023-02-19T06:08:26.500Z,50.59
2023-02-19T06:09:26.818Z,51.02
2023-02-19T06:10:26.858Z,51.37
2023-02-19T06:11:26.903Z,51.43
2023-02-19T06:12:26.989Z,51.18
2023-02-19T06:13:27.148Z,51.53
2023-02-19T06:14:27.458Z,51.34
2023-02-19T06:15:27.349Z,51.49
2023-02-19T06:16:27.615Z,51.30
2023-02-19T06:17:27.581Z,51.18
2023-02-19T06:18:27.676Z,50.93
2023-02-19T06:19:27.770Z,50.96
2023-02-19T06:20:27.954Z,50.74
2023-02-19T06:21:28.095Z,50.65
2023-02-19T06:22:28.171Z,50.38
2023-02-19T06:23:28.274Z,50.38
2023-02-19T06:24:28.365Z,50.68
2023-02-19T06:25:28.582Z,50.44
2023-02-19T06:26:28.625Z,50.74
2023-02-19T06:27:28.709Z,50.93
2023-02-19T06:28:28.856Z,51.46
2023-02-19T06:29:28.970Z,52.20
2023-02-19T06:30:29.256Z,52.76
2023-02-19T06:31:29.305Z,53.10
2023-02-19T06:32:29.355Z,53.85
2023-02-19T06:33:29.416Z,54.49
2023-02-19T06:34:29.516Z,55.80
2023-02-19T06:35:29.808Z,57.02
2023-02-19T06:36:29.862Z,57.85
2023-02-19T06:37:29.897Z,59.37
2023-02-19T06:38:30.030Z,61.02
2023-02-19T06:39:30.175Z,62.25
2023-02-19T06:40:30.857Z,63.39
2023-02-19T06:41:30.466Z,64.36
2023-02-19T06:42:30.601Z,64.61
2023-02-19T06:43:30.712Z,66.31
2023-02-19T06:44:30.806Z,67.32
2023-02-19T06:45:31.106Z,68.88
2023-02-19T06:46:31.100Z,70.51
2023-02-19T06:47:31.358Z,70.75
2023-02-19T06:48:31.298Z,70.81
2023-02-19T06:49:31.400Z,72.10
2023-02-19T06:50:31.627Z,73.04
2023-02-19T06:51:31.657Z,73.17
2023-02-19T06:52:31.973Z,73.82
2023-02-19T06:53:31.928Z,74.81
2023-02-19T06:54:32.015Z,75.83
2023-02-19T06:55:32.281Z,77.96
2023-02-19T06:56:32.240Z,80.20
2023-02-19T06:57:32.424Z,81.06
2023-02-19T06:58:32.454Z,82.34
2023-02-19T06:59:32.596Z,83.49
2023-02-19T07:00:32.727Z,84.42
2023-02-19T07:01:32.820Z,85.03
2023-02-19T07:02:33.072Z,85.29
2023-02-19T07:03:33.064Z,86.35
2023-02-19T07:04:33.252Z,87.52
2023-02-19T07:05:33.341Z,89.49
2023-02-19T07:06:33.448Z,90.86
2023-02-19T07:07:33.678Z,92.06
2023-02-19T07:08:33.678Z,93.82
2023-02-19T07:09:33.777Z,94.57
2023-02-19T07:10:33.877Z,95.10
2023-02-19T07:11:34.017Z,93.91
2023-02-19T07:12:34.309Z,95.52
2023-02-19T07:13:34.299Z,95.85
2023-02-19T07:14:34.449Z,95.74
2023-02-19T07:15:34.587Z,95.79
2023-02-19T07:16:34.766Z,95.57
2023-02-19T07:17:34.893Z,94.39
2023-02-19T07:18:34.933Z,94.82
2023-02-19T07:19:35.038Z,95.43
2023-02-19T07:20:35.131Z,94.35
2023-02-19T07:21:35.432Z,93.93
2023-02-19T07:22:35.422Z,93.09
2023-02-19T07:23:35.529Z,91.76
2023-02-19T07:24:35.841Z,89.69
2023-02-19T07:25:35.711Z,89.11
2023-02-19T07:26:35.940Z,87.52
2023-02-19T07:27:35.970Z,85.64
2023-02-19T07:28:36.130Z,84.08
2023-02-19T07:29:36.218Z,82.50
2023-02-19T07:30:36.405Z,81.30
2023-02-19T07:31:36.667Z,80.36
2023-02-19T07:32:36.567Z,79.29
2023-02-19T07:33:36.716Z,77.96
2023-02-19T07:34:36.867Z,77.31
2023-02-19T07:35:36.983Z,77.23
2023-02-19T07:36:37.267Z,76.81
2023-02-19T07:37:37.209Z,76.11
2023-02-19T07:38:37.361Z,76.25
2023-02-19T07:39:37.497Z,76.53
2023-02-19T07:40:37.643Z,77.88
2023-02-19T07:41:37.808Z,78.32
2023-02-19T07:42:37.905Z,78.91
2023-02-19T07:43:37.991Z,79.21
2023-02-19T07:44:38.787Z,79.67
2023-02-19T07:45:38.278Z,81.22
2023-02-19T07:46:38.342Z,82.42
2023-02-19T07:47:38.489Z,83.49
2023-02-19T07:48:38.593Z,85.20
2023-02-19T07:49:38.967Z,86.35
2023-02-19T07:50:38.863Z,87.43
2023-02-19T07:51:38.935Z,88.92
2023-02-19T07:52:39.087Z,90.76
2023-02-19T07:53:39.187Z,92.47
2023-02-19T07:54:39.547Z,94.25
2023-02-19T07:55:39.480Z,95.32
2023-02-19T07:56:39.565Z,95.65
2023-02-19T07:57:39.702Z,95.57
2023-02-19T07:58:39.840Z,96.35
2023-02-19T07:59:39.966Z,96.68
2023-02-19T08:00:40.138Z,97.30
2023-02-19T08:01:40.203Z,97.30
2023-02-19T08:02:40.365Z,99.04
2023-02-19T08:03:40.475Z,102.31
2023-02-19T08:04:40.596Z,104.23
2023-02-19T08:05:40.635Z,106.09
2023-02-19T08:06:40.746Z,106.63
2023-02-19T08:07:40.967Z,107.94
2023-02-19T08:08:40.979Z,110.15
2023-02-19T08:09:41.065Z,112.00
2023-02-19T08:10:41.155Z,112.07
2023-02-19T08:11:41.274Z,112.22
2023-02-19T08:12:41.555Z,112.98
2023-02-19T08:13:41.482Z,112.60
2023-02-19T08:14:41.593Z,113.29
2023-02-19T08:15:41.704Z,114.06
2023-02-19T08:16:43.489Z,114.61
2023-02-19T08:17:41.911Z,114.06
2023-02-19T08:18:42.072Z,113.60
2023-02-19T08:19:42.122Z,114.14
2023-02-19T08:20:42.234Z,114.06
2023-02-19T08:21:42.333Z,115.48
2023-02-19T08:22:42.443Z,116.37
2023-02-19T08:23:42.730Z,117.77
2023-02-19T08:24:42.696Z,120.40
2023-02-19T08:25:42.778Z,122.52
2023-02-19T08:26:42.897Z,125.09
2023-02-19T08:27:42.992Z,127.68
2023-02-19T08:28:43.130Z,129.26
2023-02-19T08:29:43.229Z,125.94
2023-02-19T08:30:43.440Z,121.63
2023-02-19T08:31:43.590Z,113.21
2023-02-19T08:32:43.577Z,105.35
2023-02-19T08:33:43.770Z,98.33
2023-02-19T08:34:43.808Z,94.57
2023-02-19T08:35:43.946Z,89.30
2023-02-19T08:36:44.107Z,84.77
2023-02-19T08:37:44.189Z,81.06
2023-02-19T08:38:44.479Z,78.25
2023-02-19T08:39:44.493Z,74.81
2023-02-19T08:40:44.585Z,72.47
2023-02-19T08:41:44.739Z,70.57
2023-02-19T08:42:44.850Z,68.94
2023-02-19T08:43:44.993Z,67.38
2023-02-19T08:44:45.073Z,66.52
2023-02-19T08:45:45.222Z,66.05
2023-02-19T08:46:45.254Z,65.68
2023-02-19T08:47:45.402Z,65.63
2023-02-19T08:48:45.736Z,67.00
2023-02-19T08:49:45.641Z,69.63
2023-02-19T08:50:45.818Z,73.23
2023-02-19T08:51:45.881Z,77.02
2023-02-19T08:52:46.022Z,80.51
2023-02-19T08:53:46.266Z,84.00
2023-02-19T08:54:46.329Z,86.79
2023-02-19T08:55:46.470Z,87.71
2023-02-19T08:56:46.567Z,89.02
2023-02-19T08:57:46.666Z,89.98
2023-02-19T08:58:46.955Z,91.06
2023-02-19T08:59:46.974Z,90.76
2023-02-19T09:00:47.074Z,90.27
2023-02-19T09:01:47.338Z,88.17
2023-02-19T09:02:47.317Z,85.11
2023-02-19T09:03:47.567Z,81.78
2023-02-19T09:04:47.664Z,78.62
2023-02-19T09:05:47.724Z,75.49
2023-02-19T09:06:47.833Z,72.41
2023-02-19T09:07:47.944Z,70.10
2023-02-19T09:08:48.192Z,67.49
2023-02-19T09:09:48.183Z,65.37
2023-02-19T09:10:48.323Z,63.34
2023-02-19T09:11:49.392Z,61.52
2023-02-19T09:12:48.609Z,60.19
2023-02-19T09:13:48.861Z,58.58
2023-02-19T09:14:48.851Z,57.06
2023-02-19T09:15:49.118Z,55.87
2023-02-19T09:16:49.150Z,54.92
2023-02-19T09:17:49.231Z,53.99
2023-02-19T09:18:49.380Z,53.13
2023-02-19T09:19:50.898Z,52.40
2023-02-19T09:20:49.670Z,51.43
2023-02-19T09:21:49.812Z,50.90
2023-02-19T09:22:49.967Z,50.19
2023-02-19T09:23:50.091Z,49.54
2023-02-19T09:24:50.474Z,49.07
2023-02-19T09:25:50.346Z,48.78
2023-02-19T09:26:50.582Z,48.50
2023-02-19T09:27:50.621Z,48.28
2023-02-19T09:28:50.793Z,48.03
2023-02-19T09:29:50.942Z,47.83
2023-02-19T09:30:51.037Z,47.29
2023-02-19T09:31:51.154Z,47.13
2023-02-19T09:32:51.268Z,46.71
2023-02-19T09:33:51.332Z,46.61
2023-02-19T09:34:51.500Z,46.19
2023-02-19T09:35:51.562Z,46.04
2023-02-19T09:36:51.652Z,45.64
2023-02-19T09:37:51.779Z,45.84
2023-02-19T09:38:51.885Z,45.34
2023-02-19T09:39:52.083Z,45.05
2023-02-19T09:40:52.129Z,45.24
2023-02-19T09:41:52.242Z,44.81
2023-02-19T09:42:52.341Z,44.90
2023-02-19T09:43:52.468Z,44.33
2023-02-19T09:44:52.778Z,44.24
2023-02-19T09:45:52.744Z,44.19
2023-02-19T09:46:52.853Z,43.91
2023-02-19T09:47:52.949Z,43.96
2023-02-19T09:48:53.128Z,43.87
2023-02-19T09:49:53.319Z,43.50
2023-02-19T09:50:53.324Z,43.50
2023-02-19T09:51:53.413Z,43.59
2023-02-19T09:52:53.546Z,43.37
2023-02-19T09:53:53.717Z,42.96
2023-02-19T09:54:56.413Z,43.10
2023-02-19T09:55:53.914Z,42.79
2023-02-19T09:56:54.106Z,42.83
2023-02-19T09:57:54.135Z,42.83
2023-02-19T09:58:54.293Z,42.83
2023-02-19T09:59:54.372Z,42.74
2023-02-19T10:00:54.535Z,42.83
2023-02-19T10:01:54.736Z,42.57
2023-02-19T10:02:54.736Z,42.61
2023-02-19T10:03:54.829Z,42.53
2023-02-19T10:04:55.054Z,42.74
2023-02-19T10:05:55.083Z,42.53
2023-02-19T10:06:55.373Z,42.53
2023-02-19T10:07:55.289Z,42.66
2023-02-19T10:08:55.446Z,42.53
2023-02-19T10:09:55.568Z,42.44
2023-02-19T10:10:55.648Z,42.53
2023-02-19T10:11:55.903Z,42.22
2023-02-19T10:12:55.973Z,42.44
2023-02-19T10:13:56.040Z,42.40
2023-02-19T10:14:56.182Z,42.27
2023-02-19T10:15:56.393Z,41.89
2023-02-19T10:16:56.507Z,42.05
2023-02-19T10:17:56.563Z,41.93
2023-02-19T10:18:56.672Z,41.93
2023-02-19T10:19:56.809Z,41.89
2023-02-19T10:20:56.905Z,42.05
2023-02-19T10:21:57.116Z,41.89
2023-02-19T10:22:57.096Z,41.97
2023-02-19T10:23:57.203Z,41.93
2023-02-19T10:24:57.403Z,42.01
2023-02-19T10:25:57.456Z,41.84
2023-02-19T10:26:57.695Z,41.89
2023-02-19T10:27:57.732Z,41.84
2023-02-19T10:28:57.774Z,42.01
2023-02-19T10:29:57.878Z,42.22
2023-02-19T10:30:58.081Z,42.18
2023-02-19T10:31:58.207Z,42.35
2023-02-19T10:32:58.355Z,42.18
2023-02-19T10:33:58.408Z,42.27
2023-02-19T10:34:58.514Z,42.44
2023-02-19T10:35:58.618Z,42.44
2023-02-19T10:36:58.793Z,42.35
2023-02-19T10:37:58.828Z,42.27
2023-02-19T10:38:58.972Z,42.10
2023-02-19T10:39:59.071Z,42.27
2023-02-19T10:40:59.182Z,42.01
2023-02-19T10:41:59.354Z,42.27
2023-02-19T10:42:59.398Z,42.10
2023-02-19T10:43:59.541Z,42.14
2023-02-19T10:44:59.702Z,42.35
2023-02-19T10:45:59.734Z,42.22
2023-02-19T10:47:00.023Z,42.35
2023-02-19T10:47:59.999Z,42.14
2023-02-19T10:49:00.141Z,42.18
2023-02-19T10:50:02.017Z,42.10
2023-02-19T10:51:00.413Z,42.22
2023-02-19T10:52:00.598Z,41.97
2023-02-19T10:53:00.650Z,42.05
2023-02-19T10:54:00.752Z,42.01
2023-02-19T10:55:00.905Z,42.18
2023-02-19T10:56:00.999Z,42.40
2023-02-19T10:57:01.494Z,42.22
2023-02-19T10:58:01.288Z,42.14
2023-02-19T10:59:01.403Z,41.84
2023-02-19T11:00:01.510Z,41.93
2023-02-19T11:01:01.589Z,41.68
2023-02-19T11:02:02.003Z,41.76
2023-02-19T11:03:01.827Z,41.72
2023-02-19T11:04:02.060Z,41.76
2023-02-19T11:05:02.193Z,41.51
2023-02-19T11:06:02.247Z,41.89
2023-02-19T11:07:02.476Z,41.63
2023-02-19T11:08:02.455Z,41.55
2023-02-19T11:09:02.619Z,41.72
2023-02-19T11:10:02.696Z,41.59
2023-02-19T11:11:02.843Z,41.43
2023-02-19T11:12:03.085Z,41.43
2023-02-19T11:13:03.058Z,41.39
2023-02-19T11:14:03.215Z,41.35
2023-02-19T11:15:03.413Z,41.43
2023-02-19T11:16:03.426Z,41.39
2023-02-19T11:17:03.563Z,41.26
2023-02-19T11:18:03.652Z,41.14
2023-02-19T11:19:03.764Z,41.06
2023-02-19T11:20:03.893Z,41.02
2023-02-19T11:21:03.994Z,41.10
2023-02-19T11:22:04.088Z,40.90
2023-02-19T11:23:04.254Z,41.06
2023-02-19T11:24:04.292Z,40.78
2023-02-19T11:25:04.390Z,41.06
2023-02-19T11:26:04.543Z,40.70
2023-02-19T11:27:04.639Z,40.94
2023-02-19T11:28:04.818Z,40.62
2023-02-19T11:29:04.848Z,40.78
2023-02-19T11:30:05.039Z,40.31
2023-02-19T11:31:05.194Z,40.66
2023-02-19T11:32:05.307Z,40.50
2023-02-19T11:33:05.419Z,40.66
2023-02-19T11:34:05.523Z,40.82
2023-02-19T11:35:05.622Z,41.02
2023-02-19T11:36:05.802Z,40.94
2023-02-19T11:37:05.861Z,41.06
2023-02-19T11:38:06.108Z,41.22
2023-02-19T11:39:06.155Z,40.98
2023-02-19T11:40:06.259Z,41.06
2023-02-19T11:41:06.373Z,41.06
2023-02-19T11:42:06.468Z,41.22
2023-02-19T11:43:06.790Z,41.39
2023-02-19T11:44:06.731Z,41.22
2023-02-19T11:45:06.851Z,41.68
2023-02-19T11:46:06.959Z,41.55
2023-02-19T11:47:07.043Z,41.72
2023-02-19T11:48:07.267Z,41.80
2023-02-19T11:49:07.249Z,41.59
2023-02-19T11:50:07.348Z,41.59
2023-02-19T11:51:07.500Z,41.80
2023-02-19T11:52:07.600Z,41.84
2023-02-19T11:53:07.816Z,41.76
2023-02-19T11:54:07.801Z,41.80
2023-02-19T11:55:07.969Z,41.80
2023-02-19T11:56:08.050Z,41.84
2023-02-19T11:57:08.186Z,41.84
2023-02-19T11:58:08.444Z,42.22
2023-02-19T11:59:08.476Z,42.18
2023-02-19T12:00:08.576Z,41.89
2023-02-19T12:01:08.822Z,42.10
2023-02-19T12:02:09.630Z,41.97
2023-02-19T12:03:08.924Z,42.01
2023-02-19T12:04:09.127Z,42.05
2023-02-19T12:05:09.319Z,41.89
2023-02-19T12:06:09.627Z,42.14
2023-02-19T12:07:09.412Z,42.14
2023-02-19T12:08:09.534Z,41.89
2023-02-19T12:09:09.761Z,41.97
2023-02-19T12:10:09.759Z,41.97
2023-02-19T12:11:09.923Z,41.89
2023-02-19T12:12:09.979Z,41.89
2023-02-19T12:13:10.060Z,41.72
2023-02-19T12:14:10.421Z,41.76
2023-02-19T12:15:10.317Z,41.68
2023-02-19T12:16:10.488Z,41.76
2023-02-19T12:17:10.564Z,41.97
2023-02-19T12:18:10.710Z,41.89
2023-02-19T12:19:10.970Z,42.05
2023-02-19T12:20:10.948Z,42.01
2023-02-19T12:21:11.401Z,42.01
2023-02-19T12:22:11.197Z,41.93
2023-02-19T12:23:11.345Z,41.76
2023-02-19T12:24:11.669Z,41.63
2023-02-19T12:25:11.633Z,41.80
2023-02-19T12:26:12.186Z,41.76
2023-02-19T12:27:11.866Z,41.84
2023-02-19T12:28:12.037Z,41.84
2023-02-19T12:29:12.166Z,41.63
2023-02-19T12:30:12.337Z,41.97
2023-02-19T12:31:12.402Z,41.76
2023-02-19T12:32:12.515Z,41.80
2023-02-19T12:33:12.605Z,42.01
2023-02-19T12:34:12.712Z,41.93
2023-02-19T12:35:12.940Z,42.01
2023-02-19T12:36:13.248Z,42.14
2023-02-19T12:37:13.033Z,42.14
2023-02-19T12:38:13.183Z,42.14
2023-02-19T12:39:13.343Z,42.14
2023-02-19T12:40:13.563Z,41.84
2023-02-19T12:41:13.543Z,41.84
2023-02-19T12:42:13.683Z,41.84
2023-02-19T12:43:13.787Z,41.84
2023-02-19T12:44:13.922Z,41.89
2023-02-19T12:45:14.152Z,42.27
2023-02-19T12:46:14.755Z,42.14
2023-02-19T12:47:14.262Z,42.40
2023-02-19T12:48:14.412Z,42.35
2023-02-19T12:49:14.502Z,42.22
2023-02-19T12:50:14.649Z,42.22
2023-02-19T12:51:14.932Z,42.14
2023-02-19T12:52:14.927Z,42.14
2023-02-19T12:53:15.043Z,42.18